createdAt,value
2022-12-27T00:00:59.322Z,1018.35
2022-12-27T00:01:59.248Z,1018.38
2022-12-27T00:02:59.252Z,1018.36
2022-12-27T00:03:59.227Z,1018.37
2022-12-27T00:04:59.198Z,1018.34
2022-12-27T00:05:59.187Z,1018.42
2022-12-27T00:06:59.176Z,1018.47
2022-12-27T00:07:59.170Z,1018.42
2022-12-27T00:08:59.200Z,1018.37
2022-12-27T00:09:59.136Z,1018.37
2022-12-27T00:10:59.135Z,1018.35
2022-12-27T00:12:00.095Z,1018.38
2022-12-27T00:12:59.109Z,1018.44
2022-12-27T00:13:59.114Z,1018.50
2022-12-27T00:14:59.102Z,1018.37
2022-12-27T00:15:59.101Z,1018.38
2022-12-27T00:16:59.072Z,1018.38
2022-12-27T00:17:59.071Z,1018.42
2022-12-27T00:18:59.054Z,1018.40
2022-12-27T00:19:59.049Z,1018.50
2022-12-27T00:20:59.030Z,1018.41
2022-12-27T00:21:59.000Z,1018.39
2022-12-27T00:22:58.998Z,1018.44
2022-12-27T00:23:58.989Z,1018.51
2022-12-27T00:24:58.999Z,1018.54
2022-12-27T00:25:58.975Z,1018.49
2022-12-27T00:26:58.988Z,1018.50
2022-12-27T00:27:58.931Z,1018.43
2022-12-27T00:28:58.950Z,1018.47
2022-12-27T00:29:58.921Z,1018.44
2022-12-27T00:30:58.931Z,1018.48
2022-12-27T00:31:58.933Z,1018.47
2022-12-27T00:32:58.902Z,1018.47
2022-12-27T00:33:58.877Z,1018.51
2022-12-27T00:34:58.918Z,1018.47
2022-12-27T00:35:59.818Z,1018.54
2022-12-27T00:36:58.877Z,1018.48
2022-12-27T00:37:58.850Z,1018.53
2022-12-27T00:38:58.874Z,1018.52
2022-12-27T00:39:58.837Z,1018.47
2022-12-27T00:40:58.809Z,1018.56
2022-12-27T00:41:58.780Z,1018.53
2022-12-27T00:42:58.796Z,1018.59
2022-12-27T00:43:58.833Z,1018.54
2022-12-27T00:45:00.422Z,1018.60
2022-12-27T00:45:58.760Z,1018.68
2022-12-27T00:46:58.794Z,1018.67
2022-12-27T00:47:58.715Z,1018.66
2022-12-27T00:48:58.766Z,1018.68
2022-12-27T00:49:58.687Z,1018.65
2022-12-27T00:50:58.687Z,1018.71
2022-12-27T00:51:58.695Z,1018.63
2022-12-27T00:52:58.664Z,1018.67
2022-12-27T00:53:58.650Z,1018.66
2022-12-27T00:54:58.657Z,1018.75
2022-12-27T00:55:58.628Z,1018.69
2022-12-27T00:56:58.648Z,1018.73
2022-12-27T00:57:58.646Z,1018.74
2022-12-27T00:58:58.603Z,1018.69
2022-12-27T00:59:58.582Z,1018.72
2022-12-27T01:00:58.589Z,1018.69
2022-12-27T01:01:58.650Z,1018.78
2022-12-27T01:02:58.568Z,1018.75
2022-12-27T01:03:58.588Z,1018.78
2022-12-27T01:04:58.570Z,1018.81
2022-12-27T01:05:58.515Z,1018.80
2022-12-27T01:06:58.529Z,1018.89
2022-12-27T01:07:58.507Z,1018.85
2022-12-27T01:08:58.480Z,1018.75
2022-12-27T01:09:58.482Z,1018.83
2022-12-27T01:10:58.478Z,1018.82
2022-12-27T01:11:58.452Z,1018.80
2022-12-27T01:12:58.543Z,1018.82
2022-12-27T01:13:58.425Z,1018.77
2022-12-27T01:14:58.451Z,1018.80
2022-12-27T01:15:58.403Z,1018.84
2022-12-27T01:16:58.437Z,1018.81
2022-12-27T01:17:58.379Z,1018.82
2022-12-27T01:18:58.419Z,1018.83
2022-12-27T01:19:58.373Z,1018.73
2022-12-27T01:20:58.352Z,1018.76
2022-12-27T01:21:58.353Z,1018.74
2022-12-27T01:22:58.327Z,1018.84
2022-12-27T01:23:58.317Z,1018.76
2022-12-27T01:24:58.357Z,1018.78
2022-12-27T01:25:58.297Z,1018.86
2022-12-27T01:26:58.292Z,1018.86
2022-12-27T01:27:58.276Z,1018.85
2022-12-27T01:28:58.267Z,1018.87
2022-12-27T01:29:58.261Z,1018.82
2022-12-27T01:30:58.295Z,1018.89
2022-12-27T01:31:58.265Z,1019.02
2022-12-27T01:32:58.226Z,1018.92
2022-12-27T01:33:58.213Z,1018.83
2022-12-27T01:34:58.212Z,1019.00
2022-12-27T01:35:58.210Z,1018.94
2022-12-27T01:36:58.222Z,1018.98
2022-12-27T01:37:58.204Z,1019.03
2022-12-27T01:38:58.164Z,1019.05
2022-12-27T01:39:59.121Z,1019.06
2022-12-27T01:40:58.143Z,1019.05
2022-12-27T01:41:58.123Z,1019.03
2022-12-27T01:42:58.123Z,1019.06
2022-12-27T01:43:58.123Z,1019.07
2022-12-27T01:44:58.097Z,1019.08
2022-12-27T01:45:58.095Z,1019.12
2022-12-27T01:46:58.088Z,1019.13
2022-12-27T01:47:58.090Z,1019.26
2022-12-27T01:48:58.037Z,1019.24
2022-12-27T01:49:58.042Z,1019.24
2022-12-27T01:50:58.023Z,1019.09
2022-12-27T01:51:58.017Z,1019.17
2022-12-27T01:52:58.061Z,1019.17
2022-12-27T01:53:58.010Z,1019.13
2022-12-27T01:54:57.978Z,1019.14
2022-12-27T01:55:58.002Z,1019.15
2022-12-27T01:56:57.954Z,1019.18
2022-12-27T01:57:57.948Z,1019.14
2022-12-27T01:58:57.947Z,1019.14
2022-12-27T01:59:57.924Z,1019.19
2022-12-27T02:00:57.943Z,1019.23
2022-12-27T02:01:58.118Z,1019.26
2022-12-27T02:02:57.911Z,1019.13
2022-12-27T02:03:57.948Z,1019.24
2022-12-27T02:04:57.876Z,1019.20
2022-12-27T02:05:57.854Z,1019.24
2022-12-27T02:06:57.851Z,1019.22
2022-12-27T02:07:57.830Z,1019.22
2022-12-27T02:08:57.818Z,1019.27
2022-12-27T02:09:57.874Z,1019.28
2022-12-27T02:10:57.800Z,1019.35
2022-12-27T02:11:57.793Z,1019.31
2022-12-27T02:12:57.787Z,1019.31
2022-12-27T02:13:57.776Z,1019.37
2022-12-27T02:14:57.756Z,1019.31
2022-12-27T02:15:58.754Z,1019.44
2022-12-27T02:16:57.771Z,1019.35
2022-12-27T02:17:57.722Z,1019.38
2022-12-27T02:18:57.737Z,1019.32
2022-12-27T02:19:57.709Z,1019.42
2022-12-27T02:20:57.698Z,1019.38
2022-12-27T02:21:58.492Z,1019.42
2022-12-27T02:22:57.711Z,1019.42
2022-12-27T02:23:57.679Z,1019.31
2022-12-27T02:24:57.657Z,1019.34
2022-12-27T02:25:57.631Z,1019.34
2022-12-27T02:26:57.631Z,1019.34
2022-12-27T02:27:57.670Z,1019.29
2022-12-27T02:28:57.607Z,1019.32
2022-12-27T02:29:57.594Z,1019.36
2022-12-27T02:30:57.615Z,1019.35
2022-12-27T02:31:57.612Z,1019.40
2022-12-27T02:32:57.559Z,1019.41
2022-12-27T02:33:57.567Z,1019.41
2022-12-27T02:34:57.545Z,1019.43
2022-12-27T02:35:57.514Z,1019.43
2022-12-27T02:36:57.525Z,1019.48
2022-12-27T02:37:57.509Z,1019.45
2022-12-27T02:38:57.484Z,1019.40
2022-12-27T02:39:57.481Z,1019.39
2022-12-27T02:40:57.508Z,1019.42
2022-12-27T02:41:58.431Z,1019.44
2022-12-27T02:42:57.436Z,1019.45
2022-12-27T02:43:57.441Z,1019.51
2022-12-27T02:44:57.428Z,1019.46
2022-12-27T02:45:57.482Z,1019.48
2022-12-27T02:46:57.437Z,1019.54
2022-12-27T02:47:57.402Z,1019.48
2022-12-27T02:48:57.396Z,1019.53
2022-12-27T02:49:57.373Z,1019.55
2022-12-27T02:50:57.356Z,1019.49
2022-12-27T02:51:57.356Z,1019.54
2022-12-27T02:52:57.364Z,1019.56
2022-12-27T02:53:57.360Z,1019.53
2022-12-27T02:54:57.304Z,1019.50
2022-12-27T02:55:57.297Z,1019.52
2022-12-27T02:56:57.286Z,1019.47
2022-12-27T02:57:57.302Z,1019.49
2022-12-27T02:58:57.256Z,1019.44
2022-12-27T02:59:57.297Z,1019.44
2022-12-27T03:00:57.274Z,1019.49
2022-12-27T03:01:57.295Z,1019.49
2022-12-27T03:02:57.261Z,1019.51
2022-12-27T03:03:57.207Z,1019.48
2022-12-27T03:04:57.218Z,1019.49
2022-12-27T03:05:57.225Z,1019.52
2022-12-27T03:06:57.182Z,1019.45
2022-12-27T03:07:57.170Z,1019.48
2022-12-27T03:08:57.151Z,1019.40
2022-12-27T03:09:57.139Z,1019.46
2022-12-27T03:10:57.133Z,1019.49
2022-12-27T03:11:57.167Z,1019.52
2022-12-27T03:12:57.117Z,1019.53
2022-12-27T03:13:57.113Z,1019.48
2022-12-27T03:14:57.084Z,1019.49
2022-12-27T03:15:57.177Z,1019.57
2022-12-27T03:16:57.082Z,1019.50
2022-12-27T03:17:57.079Z,1019.50
2022-12-27T03:18:57.069Z,1019.56
2022-12-27T03:19:57.050Z,1019.59
2022-12-27T03:20:57.017Z,1019.56
2022-12-27T03:21:57.011Z,1019.51
2022-12-27T03:22:57.004Z,1019.53
2022-12-27T03:23:57.021Z,1019.57
2022-12-27T03:24:56.990Z,1019.63
2022-12-27T03:25:56.972Z,1019.62
2022-12-27T03:26:56.992Z,1019.61
2022-12-27T03:27:56.954Z,1019.62
2022-12-27T03:28:56.932Z,1019.60
2022-12-27T03:29:56.960Z,1019.56
2022-12-27T03:30:56.997Z,1019.55
2022-12-27T03:31:56.913Z,1019.57
2022-12-27T03:32:56.885Z,1019.64
2022-12-27T03:33:56.873Z,1019.61
2022-12-27T03:34:56.895Z,1019.69
2022-12-27T03:35:56.845Z,1019.62
2022-12-27T03:36:56.861Z,1019.53
2022-12-27T03:37:56.848Z,1019.59
2022-12-27T03:38:56.813Z,1019.62
2022-12-27T03:39:56.831Z,1019.61
2022-12-27T03:40:56.805Z,1019.57
2022-12-27T03:41:56.793Z,1019.58
2022-12-27T03:42:56.775Z,1019.60
2022-12-27T03:43:56.773Z,1019.60
2022-12-27T03:44:56.774Z,1019.58
2022-12-27T03:45:56.829Z,1019.58
2022-12-27T03:46:56.745Z,1019.56
2022-12-27T03:47:56.725Z,1019.55
2022-12-27T03:48:56.708Z,1019.61
2022-12-27T03:49:56.748Z,1019.64
2022-12-27T03:50:56.748Z,1019.60
2022-12-27T03:51:56.697Z,1019.69
2022-12-27T03:52:56.665Z,1019.58
2022-12-27T03:53:56.660Z,1019.66
2022-12-27T03:54:56.637Z,1019.60
2022-12-27T03:55:56.659Z,1019.67
2022-12-27T03:56:56.619Z,1019.67
2022-12-27T03:57:56.621Z,1019.64
2022-12-27T03:58:56.597Z,1019.60
2022-12-27T03:59:56.642Z,1019.67
2022-12-27T04:00:56.591Z,1019.65
2022-12-27T04:01:56.696Z,1019.69
2022-12-27T04:02:56.647Z,1019.71
2022-12-27T04:03:56.543Z,1019.68
2022-12-27T04:04:56.533Z,1019.64
2022-12-27T04:05:56.524Z,1019.69
2022-12-27T04:06:56.508Z,1019.68
2022-12-27T04:07:56.534Z,1019.69
2022-12-27T04:08:56.485Z,1019.71
2022-12-27T04:09:56.476Z,1019.74
2022-12-27T04:10:56.475Z,1019.66
2022-12-27T04:11:56.481Z,1019.65
2022-12-27T04:12:56.491Z,1019.66
2022-12-27T04:13:56.431Z,1019.71
2022-12-27T04:14:56.414Z,1019.64
2022-12-27T04:15:56.422Z,1019.75
2022-12-27T04:16:56.390Z,1019.69
2022-12-27T04:17:56.401Z,1019.66
2022-12-27T04:18:56.421Z,1019.63
2022-12-27T04:19:56.384Z,1019.55
2022-12-27T04:20:56.349Z,1019.57
2022-12-27T04:21:56.364Z,1019.57
2022-12-27T04:22:56.331Z,1019.54
2022-12-27T04:23:56.323Z,1019.58
2022-12-27T04:24:56.306Z,1019.61
2022-12-27T04:25:56.319Z,1019.56
2022-12-27T04:26:56.306Z,1019.48
2022-12-27T04:27:56.281Z,1019.49
2022-12-27T04:28:56.312Z,1019.48
2022-12-27T04:29:56.253Z,1019.48
2022-12-27T04:30:56.259Z,1019.43
2022-12-27T04:31:56.252Z,1019.44
2022-12-27T04:32:56.234Z,1019.44
2022-12-27T04:33:56.264Z,1019.35
2022-12-27T04:34:56.203Z,1019.47
2022-12-27T04:35:59.093Z,1019.48
2022-12-27T04:36:57.175Z,1019.51
2022-12-27T04:37:56.184Z,1019.62
2022-12-27T04:38:56.155Z,1019.59
2022-12-27T04:39:56.184Z,1019.64
2022-12-27T04:40:57.092Z,1019.57
2022-12-27T04:41:56.125Z,1019.59
2022-12-27T04:42:56.130Z,1019.59
2022-12-27T04:43:56.105Z,1019.55
2022-12-27T04:44:56.090Z,1019.59
2022-12-27T04:45:56.106Z,1019.56
2022-12-27T04:46:56.075Z,1019.64
2022-12-27T04:47:56.077Z,1019.62
2022-12-27T04:48:56.049Z,1019.64
2022-12-27T04:49:56.049Z,1019.56
2022-12-27T04:50:56.027Z,1019.57
2022-12-27T04:51:56.029Z,1019.69
2022-12-27T04:52:56.036Z,1019.75
2022-12-27T04:53:55.998Z,1019.72
2022-12-27T04:54:55.988Z,1019.77
2022-12-27T04:55:55.971Z,1019.74
2022-12-27T04:56:55.968Z,1019.75
2022-12-27T04:57:55.955Z,1019.84
2022-12-27T04:58:55.967Z,1019.82
2022-12-27T04:59:55.958Z,1019.80
2022-12-27T05:00:55.912Z,1019.82
2022-12-27T05:01:56.019Z,1019.82
2022-12-27T05:02:56.046Z,1019.82
2022-12-27T05:03:55.897Z,1019.88
2022-12-27T05:04:56.844Z,1019.93
2022-12-27T05:05:55.862Z,1019.95
2022-12-27T05:06:57.301Z,1019.92
2022-12-27T05:07:55.871Z,1019.89
2022-12-27T05:08:55.828Z,1019.91
2022-12-27T05:09:55.968Z,1019.97
2022-12-27T05:10:55.817Z,1019.98
2022-12-27T05:11:55.818Z,1019.99
2022-12-27T05:12:55.788Z,1020.05
2022-12-27T05:13:55.794Z,1019.97
2022-12-27T05:14:57.722Z,1020.05
2022-12-27T05:15:55.785Z,1020.02
2022-12-27T05:16:56.682Z,1020.05
2022-12-27T05:17:55.780Z,1020.04
2022-12-27T05:18:55.745Z,1020.11
2022-12-27T05:19:55.704Z,1020.07
2022-12-27T05:20:55.810Z,1020.16
2022-12-27T05:21:55.691Z,1020.10
2022-12-27T05:22:55.710Z,1020.21
2022-12-27T05:24:00.221Z,1020.11
2022-12-27T05:24:57.452Z,1020.22
2022-12-27T05:25:55.643Z,1020.19
2022-12-27T05:26:55.634Z,1020.19
2022-12-27T05:27:55.624Z,1020.25
2022-12-27T05:28:55.603Z,1020.24
2022-12-27T05:29:55.632Z,1020.29
2022-12-27T05:30:55.603Z,1020.30
2022-12-27T05:31:55.663Z,1020.29
2022-12-27T05:32:55.577Z,1020.26
2022-12-27T05:33:55.565Z,1020.29
2022-12-27T05:34:55.555Z,1020.31
2022-12-27T05:35:55.551Z,1020.29
2022-12-27T05:36:56.964Z,1020.28
2022-12-27T05:37:55.518Z,1020.34
2022-12-27T05:38:55.528Z,1020.29
2022-12-27T05:39:55.498Z,1020.30
2022-12-27T05:40:55.474Z,1020.37
2022-12-27T05:41:55.490Z,1020.36
2022-12-27T05:42:55.466Z,1020.34
2022-12-27T05:43:55.450Z,1020.37
2022-12-27T05:44:55.469Z,1020.36
2022-12-27T05:45:55.420Z,1020.23
2022-12-27T05:46:55.450Z,1020.26
2022-12-27T05:47:55.413Z,1020.35
2022-12-27T05:48:55.390Z,1020.36
2022-12-27T05:49:55.397Z,1020.34
2022-12-27T05:50:55.370Z,1020.35
2022-12-27T05:51:55.362Z,1020.39
2022-12-27T05:52:55.372Z,1020.36
2022-12-27T05:53:55.342Z,1020.42
2022-12-27T05:54:55.346Z,1020.44
2022-12-27T05:55:55.355Z,1020.43
2022-12-27T05:56:55.318Z,1020.45
2022-12-27T05:57:55.295Z,1020.47
2022-12-27T05:58:55.286Z,1020.45
2022-12-27T05:59:55.268Z,1020.45
2022-12-27T06:00:55.266Z,1020.52
2022-12-27T06:01:55.465Z,1020.45
2022-12-27T06:02:55.287Z,1020.51
2022-12-27T06:03:55.231Z,1020.45
2022-12-27T06:04:55.211Z,1020.45
2022-12-27T06:05:55.226Z,1020.47
2022-12-27T06:06:55.204Z,1020.50
2022-12-27T06:07:55.257Z,1020.53
2022-12-27T06:08:55.178Z,1020.46
2022-12-27T06:09:55.153Z,1020.48
2022-12-27T06:10:55.171Z,1020.42
2022-12-27T06:11:55.128Z,1020.47
2022-12-27T06:12:55.133Z,1020.44
2022-12-27T06:13:55.133Z,1020.51
2022-12-27T06:14:55.108Z,1020.51
2022-12-27T06:15:55.111Z,1020.54
2022-12-27T06:16:55.155Z,1020.56
2022-12-27T06:17:55.065Z,1020.50
2022-12-27T06:18:55.054Z,1020.55
2022-12-27T06:19:57.294Z,1020.50
2022-12-27T06:20:55.082Z,1020.55
2022-12-27T06:21:55.036Z,1020.55
2022-12-27T06:22:55.016Z,1020.53
2022-12-27T06:23:55.103Z,1020.56
2022-12-27T06:24:55.973Z,1020.63
2022-12-27T06:25:54.977Z,1020.59
2022-12-27T06:26:54.992Z,1020.63
2022-12-27T06:27:54.954Z,1020.65
2022-12-27T06:28:54.945Z,1020.64
2022-12-27T06:29:55.889Z,1020.67
2022-12-27T06:30:54.952Z,1020.60
2022-12-27T06:31:54.932Z,1020.67
2022-12-27T06:32:54.916Z,1020.69
2022-12-27T06:33:54.886Z,1020.65
2022-12-27T06:34:54.874Z,1020.63
2022-12-27T06:35:54.868Z,1020.68
2022-12-27T06:36:54.939Z,1020.60
2022-12-27T06:37:54.864Z,1020.63
2022-12-27T06:38:54.846Z,1020.64
2022-12-27T06:39:54.840Z,1020.64
2022-12-27T06:40:54.806Z,1020.69
2022-12-27T06:41:54.834Z,1020.65
2022-12-27T06:42:54.794Z,1020.69
2022-12-27T06:43:54.776Z,1020.68
2022-12-27T06:44:54.770Z,1020.63
2022-12-27T06:45:54.818Z,1020.67
2022-12-27T06:46:54.750Z,1020.69
2022-12-27T06:47:54.785Z,1020.69
2022-12-27T06:48:55.674Z,1020.73
2022-12-27T06:49:54.713Z,1020.78
2022-12-27T06:50:54.738Z,1020.83
2022-12-27T06:51:59.533Z,1020.76
2022-12-27T06:52:55.718Z,1020.80
2022-12-27T06:53:54.666Z,1020.88
2022-12-27T06:54:54.678Z,1020.86
2022-12-27T06:55:54.659Z,1020.80
2022-12-27T06:56:54.649Z,1020.80
2022-12-27T06:57:54.645Z,1020.79
2022-12-27T06:58:54.699Z,1020.77
2022-12-27T06:59:54.642Z,1020.78
2022-12-27T07:00:54.645Z,1020.78
2022-12-27T07:01:54.876Z,1020.78
2022-12-27T07:02:54.668Z,1020.85
2022-12-27T07:03:54.559Z,1020.88
2022-12-27T07:04:54.544Z,1020.82
2022-12-27T07:05:54.536Z,1020.86
2022-12-27T07:06:54.525Z,1020.88
2022-12-27T07:07:54.539Z,1020.88
2022-12-27T07:08:54.500Z,1020.84
2022-12-27T07:09:55.515Z,1020.85
2022-12-27T07:10:54.524Z,1020.88
2022-12-27T07:11:54.492Z,1020.95
2022-12-27T07:12:54.461Z,1020.93
2022-12-27T07:13:54.449Z,1020.98
2022-12-27T07:14:54.447Z,1020.96
2022-12-27T07:15:54.447Z,1021.03
2022-12-27T07:16:54.419Z,1020.97
2022-12-27T07:17:54.409Z,1021.02
2022-12-27T07:18:55.352Z,1021.01
2022-12-27T07:19:54.434Z,1021.03
2022-12-27T07:20:54.372Z,1021.03
2022-12-27T07:21:54.347Z,1021.03
2022-12-27T07:22:54.368Z,1021.07
2022-12-27T07:23:54.332Z,1021.04
2022-12-27T07:24:54.329Z,1021.13
2022-12-27T07:25:54.504Z,1021.12
2022-12-27T07:26:54.306Z,1021.14
2022-12-27T07:27:54.286Z,1021.09
2022-12-27T07:28:54.323Z,1021.09
2022-12-27T07:29:54.269Z,1021.17
2022-12-27T07:30:55.523Z,1021.14
2022-12-27T07:31:54.315Z,1021.26
2022-12-27T07:32:54.234Z,1021.21
2022-12-27T07:33:54.230Z,1021.17
2022-12-27T07:34:54.228Z,1021.23
2022-12-27T07:35:54.375Z,1021.25
2022-12-27T07:36:54.195Z,1021.19
2022-12-27T07:37:54.419Z,1021.20
2022-12-27T07:38:54.219Z,1021.23
2022-12-27T07:39:54.191Z,1021.23
2022-12-27T07:40:54.155Z,1021.20
2022-12-27T07:41:54.136Z,1021.24
2022-12-27T07:42:54.162Z,1021.22
2022-12-27T07:43:54.123Z,1021.25
2022-12-27T07:44:54.111Z,1021.28
2022-12-27T07:45:54.129Z,1021.27
2022-12-27T07:46:54.083Z,1021.25
2022-12-27T07:47:54.098Z,1021.24
2022-12-27T07:48:54.096Z,1021.24
2022-12-27T07:49:54.056Z,1021.22
2022-12-27T07:50:54.036Z,1021.30
2022-12-27T07:51:54.051Z,1021.26
2022-12-27T07:52:54.034Z,1021.34
2022-12-27T07:53:54.022Z,1021.32
2022-12-27T07:54:54.008Z,1021.37
2022-12-27T07:55:54.027Z,1021.27
2022-12-27T07:56:54.003Z,1021.27
2022-12-27T07:57:53.979Z,1021.25
2022-12-27T07:58:54.025Z,1021.22
2022-12-27T07:59:53.957Z,1021.26
2022-12-27T08:00:54.036Z,1021.26
2022-12-27T08:01:53.971Z,1021.32
2022-12-27T08:02:53.957Z,1021.32
2022-12-27T08:03:53.906Z,1021.35
2022-12-27T08:04:54.865Z,1021.35
2022-12-27T08:05:53.881Z,1021.41
2022-12-27T08:06:53.874Z,1021.44
2022-12-27T08:07:53.872Z,1021.40
2022-12-27T08:08:53.873Z,1021.44
2022-12-27T08:09:53.835Z,1021.52
2022-12-27T08:10:53.826Z,1021.48
2022-12-27T08:11:53.799Z,1021.47
2022-12-27T08:12:53.809Z,1021.51
2022-12-27T08:13:53.812Z,1021.49
2022-12-27T08:14:53.780Z,1021.44
2022-12-27T08:15:53.772Z,1021.51
2022-12-27T08:16:53.791Z,1021.48
2022-12-27T08:17:53.752Z,1021.49
2022-12-27T08:18:54.611Z,1021.53
2022-12-27T08:19:53.713Z,1021.56
2022-12-27T08:20:53.706Z,1021.54
2022-12-27T08:21:53.711Z,1021.55
2022-12-27T08:22:53.887Z,1021.60
2022-12-27T08:23:53.754Z,1021.61
2022-12-27T08:24:54.032Z,1021.61
2022-12-27T08:25:53.650Z,1021.60
2022-12-27T08:26:53.649Z,1021.59
2022-12-27T08:27:55.077Z,1021.59
2022-12-27T08:28:53.636Z,1021.54
2022-12-27T08:29:53.648Z,1021.52
2022-12-27T08:30:53.639Z,1021.54
2022-12-27T08:31:53.598Z,1021.53
2022-12-27T08:32:53.576Z,1021.59
2022-12-27T08:33:58.265Z,1021.52
2022-12-27T08:34:54.624Z,1021.51
2022-12-27T08:35:54.622Z,1021.50
2022-12-27T08:36:55.646Z,1021.51
2022-12-27T08:37:53.584Z,1021.55
2022-12-27T08:38:53.646Z,1021.60
2022-12-27T08:39:57.751Z,1021.56
2022-12-27T08:40:54.487Z,1021.53
2022-12-27T08:41:53.491Z,1021.56
2022-12-27T08:42:53.478Z,1021.60
2022-12-27T08:43:53.629Z,1021.59
2022-12-27T08:44:53.512Z,1021.57
2022-12-27T08:45:53.454Z,1021.55
2022-12-27T08:46:53.738Z,1021.58
2022-12-27T08:47:53.468Z,1021.57
2022-12-27T08:48:53.422Z,1021.54
2022-12-27T08:49:53.400Z,1021.54
2022-12-27T08:50:53.379Z,1021.50
2022-12-27T08:51:53.361Z,1021.56
2022-12-27T08:53:03.601Z,1021.64
2022-12-27T08:53:53.349Z,1021.63
2022-12-27T08:54:53.339Z,1021.60
2022-12-27T08:55:53.338Z,1021.59
2022-12-27T08:56:53.502Z,1021.60
2022-12-27T08:57:53.290Z,1021.74
2022-12-27T08:58:53.329Z,1021.66
2022-12-27T08:59:53.280Z,1021.69
2022-12-27T09:00:53.269Z,1021.66
2022-12-27T09:01:53.405Z,1021.60
2022-12-27T09:02:53.277Z,1021.66
2022-12-27T09:03:53.262Z,1021.68
2022-12-27T09:04:53.347Z,1021.65
2022-12-27T09:05:53.812Z,1021.68
2022-12-27T09:06:54.142Z,1021.71
2022-12-27T09:07:54.660Z,1021.73
2022-12-27T09:08:53.306Z,1021.72
2022-12-27T09:09:53.262Z,1021.73
2022-12-27T09:10:54.008Z,1021.75
2022-12-27T09:11:53.179Z,1021.71
2022-12-27T09:12:53.141Z,1021.72
2022-12-27T09:13:53.140Z,1021.72
2022-12-27T09:14:54.139Z,1021.71
2022-12-27T09:15:53.132Z,1021.72
2022-12-27T09:16:53.116Z,1021.67
2022-12-27T09:17:53.114Z,1021.70
2022-12-27T09:18:53.099Z,1021.71
2022-12-27T09:19:53.063Z,1021.76
2022-12-27T09:20:54.006Z,1021.72
2022-12-27T09:21:53.858Z,1021.73
2022-12-27T09:22:53.044Z,1021.75
2022-12-27T09:23:54.465Z,1021.78
2022-12-27T09:24:54.458Z,1021.88
2022-12-27T09:25:53.055Z,1021.85
2022-12-27T09:26:53.028Z,1021.88
2022-12-27T09:27:54.428Z,1021.83
2022-12-27T09:28:53.067Z,1021.85
2022-12-27T09:29:52.976Z,1021.90
2022-12-27T09:30:52.977Z,1021.85
2022-12-27T09:31:52.960Z,1021.90
2022-12-27T09:32:52.917Z,1021.91
2022-12-27T09:33:53.124Z,1021.90
2022-12-27T09:34:52.889Z,1021.88
2022-12-27T09:35:53.835Z,1021.90
2022-12-27T09:36:53.011Z,1021.90
2022-12-27T09:37:52.961Z,1021.87
2022-12-27T09:38:53.054Z,1021.90
2022-12-27T09:39:52.906Z,1021.86
2022-12-27T09:40:52.837Z,1021.95
2022-12-27T09:43:10.500Z,1021.96
2022-12-27T09:43:53.799Z,1021.87
2022-12-27T09:44:52.798Z,1021.85
2022-12-27T09:45:52.792Z,1021.84
2022-12-27T09:46:52.791Z,1021.84
2022-12-27T09:47:52.751Z,1021.78
2022-12-27T09:48:52.741Z,1021.84
2022-12-27T09:49:52.758Z,1021.88
2022-12-27T09:50:52.710Z,1021.82
2022-12-27T09:51:52.694Z,1021.89
2022-12-27T09:52:52.690Z,1021.80
2022-12-27T09:53:52.680Z,1021.86
2022-12-27T09:54:52.674Z,1021.82
2022-12-27T09:55:52.692Z,1021.76
2022-12-27T09:57:18.752Z,1021.75
2022-12-27T09:57:53.635Z,1021.75
2022-12-27T09:58:52.625Z,1021.77
2022-12-27T09:59:52.629Z,1021.69
2022-12-27T10:00:53.453Z,1021.74
2022-12-27T10:01:52.661Z,1021.78
2022-12-27T10:02:52.601Z,1021.75
2022-12-27T10:03:53.503Z,1021.70
2022-12-27T10:05:56.521Z,1021.71
2022-12-27T10:06:53.379Z,1021.64
2022-12-27T10:07:53.974Z,1021.75
2022-12-27T10:08:52.517Z,1021.63
2022-12-27T10:09:52.656Z,1021.68
2022-12-27T10:10:52.493Z,1021.69
2022-12-27T10:11:52.463Z,1021.66
2022-12-27T10:12:52.506Z,1021.65
2022-12-27T10:13:52.449Z,1021.67
2022-12-27T10:14:52.444Z,1021.67
2022-12-27T10:15:52.525Z,1021.64
2022-12-27T10:16:52.414Z,1021.65
2022-12-27T10:17:53.608Z,1021.66
2022-12-27T10:18:52.436Z,1021.74
2022-12-27T10:19:52.378Z,1021.68
2022-12-27T10:20:52.378Z,1021.68
2022-12-27T10:21:52.365Z,1021.69
2022-12-27T10:22:52.366Z,1021.73
2022-12-27T10:23:52.344Z,1021.72
2022-12-27T10:24:52.369Z,1021.69
2022-12-27T10:25:52.363Z,1021.71
2022-12-27T10:26:52.313Z,1021.67
2022-12-27T10:27:52.310Z,1021.69
2022-12-27T10:28:55.601Z,1021.62
2022-12-27T10:29:53.281Z,1021.67
2022-12-27T10:30:52.338Z,1021.65
2022-12-27T10:31:52.257Z,1021.68
2022-12-27T10:32:52.241Z,1021.65
2022-12-27T10:33:52.248Z,1021.64
2022-12-27T10:34:52.265Z,1021.64
2022-12-27T10:35:52.205Z,1021.55
2022-12-27T10:36:52.208Z,1021.57
2022-12-27T10:37:52.193Z,1021.58
2022-12-27T10:38:52.190Z,1021.57
2022-12-27T10:39:52.187Z,1021.61
2022-12-27T10:40:52.218Z,1021.59
2022-12-27T10:41:52.149Z,1021.61
2022-12-27T10:42:52.145Z,1021.60
2022-12-27T10:43:52.140Z,1021.56
2022-12-27T10:44:52.128Z,1021.60
2022-12-27T10:45:52.113Z,1021.58
2022-12-27T10:46:52.193Z,1021.57
2022-12-27T10:47:52.076Z,1021.56
2022-12-27T10:49:19.706Z,1021.59
2022-12-27T10:49:53.059Z,1021.59
2022-12-27T10:50:52.084Z,1021.69
2022-12-27T10:51:52.075Z,1021.69
2022-12-27T10:52:57.296Z,1021.62
2022-12-27T10:53:53.019Z,1021.64
2022-12-27T10:54:52.042Z,1021.70
2022-12-27T10:55:52.028Z,1021.76
2022-12-27T10:56:52.038Z,1021.76
2022-12-27T10:57:52.125Z,1021.74
2022-12-27T10:58:58.418Z,1021.73
2022-12-27T10:59:53.845Z,1021.76
2022-12-27T11:00:52.158Z,1021.81
2022-12-27T11:01:51.965Z,1021.79
2022-12-27T11:02:52.821Z,1021.75
2022-12-27T11:03:51.917Z,1021.77
2022-12-27T11:04:52.304Z,1021.82
2022-12-27T11:05:53.353Z,1021.81
2022-12-27T11:06:52.026Z,1021.81
2022-12-27T11:07:51.851Z,1021.75
2022-12-27T11:08:51.867Z,1021.80
2022-12-27T11:09:51.851Z,1021.76
2022-12-27T11:10:51.817Z,1021.75
2022-12-27T11:11:51.835Z,1021.82
2022-12-27T11:12:51.826Z,1021.77
2022-12-27T11:13:51.793Z,1021.77
2022-12-27T11:14:51.779Z,1021.76
2022-12-27T11:15:56.741Z,1021.75
2022-12-27T11:16:52.776Z,1021.74
2022-12-27T11:17:51.756Z,1021.78
2022-12-27T11:18:51.770Z,1021.75
2022-12-27T11:19:51.731Z,1021.75
2022-12-27T11:20:51.726Z,1021.71
2022-12-27T11:21:51.712Z,1021.70
2022-12-27T11:22:51.676Z,1021.68
2022-12-27T11:23:51.681Z,1021.72
2022-12-27T11:24:51.661Z,1021.66
2022-12-27T11:25:51.677Z,1021.73
2022-12-27T11:26:54.026Z,1021.67
2022-12-27T11:27:51.641Z,1021.70
2022-12-27T11:28:51.608Z,1021.77
2022-12-27T11:29:51.631Z,1021.78
2022-12-27T11:30:51.613Z,1021.76
2022-12-27T11:31:51.661Z,1021.71
2022-12-27T11:32:51.566Z,1021.70
2022-12-27T11:33:51.572Z,1021.70
2022-12-27T11:34:51.546Z,1021.70
2022-12-27T11:35:51.574Z,1021.71
2022-12-27T11:36:51.521Z,1021.65
2022-12-27T11:37:51.517Z,1021.66
2022-12-27T11:38:51.519Z,1021.66
2022-12-27T11:39:51.521Z,1021.67
2022-12-27T11:40:51.490Z,1021.68
2022-12-27T11:41:51.482Z,1021.66
2022-12-27T11:42:51.478Z,1021.74
2022-12-27T11:43:52.437Z,1021.66
2022-12-27T11:44:51.495Z,1021.71
2022-12-27T11:45:51.434Z,1021.66
2022-12-27T11:46:57.057Z,1021.67
2022-12-27T11:47:52.400Z,1021.68
2022-12-27T11:48:51.391Z,1021.59
2022-12-27T11:49:51.426Z,1021.54
2022-12-27T11:50:51.428Z,1021.58
2022-12-27T11:51:51.392Z,1021.53
2022-12-27T11:52:51.348Z,1021.54
2022-12-27T11:53:56.146Z,1021.63
2022-12-27T11:54:52.325Z,1021.58
2022-12-27T11:55:51.328Z,1021.61
2022-12-27T11:56:51.349Z,1021.62
2022-12-27T11:57:51.309Z,1021.66
2022-12-27T11:58:51.289Z,1021.63
2022-12-27T11:59:51.290Z,1021.61
2022-12-27T12:00:51.272Z,1021.63
2022-12-27T12:01:51.442Z,1021.59
2022-12-27T12:02:51.383Z,1021.56
2022-12-27T12:03:51.224Z,1021.58
2022-12-27T12:04:51.897Z,1021.59
2022-12-27T12:05:51.201Z,1021.64
2022-12-27T12:06:51.200Z,1021.61
2022-12-27T12:07:51.244Z,1021.56